Time;durP1;ratioP1;P1;durP2;ratioP2;P2;SDS_P1;SDS_P2;PMS_P1;PMS_P2;Temp;Humidity;BMP_temperature;BMP_pressure;BME280_temperature;BME280_humidity;BME280_pressure;Samples;Min_cycle;Max_cycle;Signal;HPM_P1;HPM_P2
2021/06/04 00:01:45;;;;;;;1.48;1.45;;;;;;;;;;5068235;28;20071;-79
2021/06/04 00:04:13;;;;;;;1.17;1.17;;;;;;;;;;5068525;28;20489;-79
2021/06/04 00:06:40;;;;;;;2.45;1.10;;;;;;;;;;5068394;28;20111;-79
2021/06/04 00:09:09;;;;;;;1.10;1.10;;;;;;;;;;5065697;28;20054;-79
2021/06/04 00:11:39;;;;;;;1.17;1.17;;;;;;;;;;5070914;28;20041;-79
2021/06/04 00:14:23;;;;;;;1.20;1.13;;;;;;;;;;5069312;28;20501;-79
2021/06/04 00:16:55;;;;;;;2.17;1.20;;;;;;;;;;5100590;28;20056;-79
2021/06/04 00:19:23;;;;;;;1.58;1.48;;;;;;;;;;5068724;28;20044;-79
2021/06/04 00:21:53;;;;;;;5.28;1.55;;;;;;;;;;5065082;28;20044;-79
2021/06/04 00:24:20;;;;;;;1.40;1.30;;;;;;;;;;5059570;28;20043;-79
2021/06/04 00:26:48;;;;;;;1.20;1.10;;;;;;;;;;5067389;28;20042;-79
2021/06/04 00:29:15;;;;;;;1.55;1.33;;;;;;;;;;5050394;28;20076;-79
2021/06/04 00:31:43;;;;;;;1.40;1.40;;;;;;;;;;5067738;28;20036;-79
2021/06/04 00:34:12;;;;;;;1.40;1.40;;;;;;;;;;5067975;28;20036;-79
2021/06/04 00:36:40;;;;;;;2.60;2.05;;;;;;;;;;5067111;28;20032;-79
2021/06/04 00:39:09;;;;;;;1.55;1.45;;;;;;;;;;5063774;28;20050;-79
2021/06/04 00:41:38;;;;;;;1.55;1.48;;;;;;;;;;5066611;28;20045;-79
2021/06/04 00:44:06;;;;;;;1.10;1.10;;;;;;;;;;5069675;28;20128;-79
2021/06/04 00:46:33;;;;;;;2.15;1.30;;;;;;;;;;5068171;28;20539;-79
2021/06/04 00:49:00;;;;;;;1.27;1.27;;;;;;;;;;5070239;28;20038;-79
2021/06/04 00:51:33;;;;;;;1.10;1.10;;;;;;;;;;5096864;28;20037;-79
2021/06/04 00:54:00;;;;;;;;;;;;;;;;;;5082457;28;20036;-79
2021/06/04 00:56:28;;;;;;;2.55;1.63;;;;;;;;;;5069008;28;19920;-79
2021/06/04 00:58:56;;;;;;;1.40;1.30;;;;;;;;;;5050180;28;20044;-79
2021/06/04 01:01:25;;;;;;;1.50;1.40;;;;;;;;;;5070247;28;20041;-79
2021/06/04 01:03:55;;;;;;;1.40;1.40;;;;;;;;;;5067206;28;20048;-79
2021/06/04 01:06:31;;;;;;;3.72;1.50;;;;;;;;;;5068726;28;20036;-79
2021/06/04 01:09:08;;;;;;;1.70;1.30;;;;;;;;;;5093801;28;20040;-79
2021/06/04 01:11:53;;;;;;;1.63;1.52;;;;;;;;;;5066559;28;20389;-79
2021/06/04 01:14:45;;;;;;;1.33;1.30;;;;;;;;;;5069004;28;20062;-79
2021/06/04 01:17:26;;;;;;;3.45;1.50;;;;;;;;;;5052599;28;20061;-79
2021/06/04 01:19:57;;;;;;;1.77;1.77;;;;;;;;;;5065850;28;20047;-79
2021/06/04 01:22:44;;;;;;;2.35;1.52;;;;;;;;;;5068221;28;20049;-79
2021/06/04 01:25:11;;;;;;;2.20;1.98;;;;;;;;;;5072939;28;20144;-79
2021/06/04 01:27:41;;;;;;;2.70;1.70;;;;;;;;;;5066641;28;20067;-79
2021/06/04 01:30:15;;;;;;;3.90;1.42;;;;;;;;;;5050842;28;20044;-79
2021/06/04 01:32:42;;;;;;;1.85;1.52;;;;;;;;;;5056863;28;20060;-79
2021/06/04 01:35:12;;;;;;;2.08;1.98;;;;;;;;;;5075553;28;20037;-79
2021/06/04 01:37:40;;;;;;;3.47;1.40;;;;;;;;;;5062691;28;20049;-79
2021/06/04 01:40:28;;;;;;;1.40;1.40;;;;;;;;;;5067982;28;20541;-79
2021/06/04 01:42:56;;;;;;;1.73;1.73;;;;;;;;;;5070464;28;20040;-79
2021/06/04 01:45:32;;;;;;;1.67;1.60;;;;;;;;;;5094460;28;20075;-79
2021/06/04 01:48:03;;;;;;;1.50;1.50;;;;;;;;;;5073787;28;20125;-79
2021/06/04 01:50:36;;;;;;;1.48;1.45;;;;;;;;;;5099360;28;20544;-79
2021/06/04 01:53:19;;;;;;;1.60;1.40;;;;;;;;;;5073873;28;20055;-79
2021/06/04 01:55:49;;;;;;;1.30;1.30;;;;;;;;;;5071328;28;20052;-79
2021/06/04 01:58:20;;;;;;;2.80;1.92;;;;;;;;;;5071008;28;20120;-79
2021/06/04 02:00:50;;;;;;;2.65;1.95;;;;;;;;;;5061092;28;20044;-79
2021/06/04 02:03:20;;;;;;;1.80;1.70;;;;;;;;;;5064758;28;20036;-79
2021/06/04 02:05:48;;;;;;;2.08;1.77;;;;;;;;;;5071966;28;20046;-79
2021/06/04 02:08:35;;;;;;;3.90;1.30;;;;;;;;;;5070224;28;20405;-79
2021/06/04 02:11:04;;;;;;;1.95;1.85;;;;;;;;;;5053285;28;20681;-79
2021/06/04 02:13:31;;;;;;;1.40;1.40;;;;;;;;;;5073270;28;20047;-79
2021/06/04 02:16:17;;;;;;;2.13;1.92;;;;;;;;;;5068433;28;20055;-79
2021/06/04 02:18:53;;;;;;;1.58;1.40;;;;;;;;;;5067961;28;20048;-79
2021/06/04 02:21:23;;;;;;;1.67;1.58;;;;;;;;;;5072915;28;20045;-79
2021/06/04 02:24:19;;;;;;;1.55;1.42;;;;;;;;;;5070849;28;20462;-79
2021/06/04 02:26:55;;;;;;;1.90;1.50;;;;;;;;;;5035573;28;20525;-79
2021/06/04 02:29:31;;;;;;;1.35;1.35;;;;;;;;;;5016691;28;20561;-79
2021/06/04 02:32:10;;;;;;;1.42;1.42;;;;;;;;;;5029069;28;20049;-79
2021/06/04 02:34:44;;;;;;;2.50;1.52;;;;;;;;;;5026516;28;20057;-79
2021/06/04 02:37:22;;;;;;;1.90;1.80;;;;;;;;;;5017447;28;20481;-79
2021/06/04 02:39:52;;;;;;;2.08;1.98;;;;;;;;;;5047483;28;20051;-79
2021/06/04 02:42:22;;;;;;;2.45;1.60;;;;;;;;;;5030907;28;20043;-79
2021/06/04 02:45:11;;;;;;;1.58;1.45;;;;;;;;;;5049565;28;20076;-79
2021/06/04 02:47:49;;;;;;;1.70;1.70;;;;;;;;;;5047180;28;20200;-79
2021/06/04 02:50:21;;;;;;;1.95;1.90;;;;;;;;;;5039895;28;20050;-79
2021/06/04 02:52:48;;;;;;;1.57;1.47;;;;;;;;;;5048668;28;20037;-79
2021/06/04 02:55:19;;;;;;;1.67;1.48;;;;;;;;;;5031755;28;20287;-79
2021/06/04 02:57:47;;;;;;;3.70;2.70;;;;;;;;;;5049504;28;20479;-79
2021/06/04 03:00:17;;;;;;;1.60;1.60;;;;;;;;;;5029266;28;20087;-79
2021/06/04 03:02:44;;;;;;;1.50;1.50;;;;;;;;;;5040551;28;20120;-79
2021/06/04 03:05:15;;;;;;;1.95;1.85;;;;;;;;;;5060922;28;20055;-79
2021/06/04 03:07:43;;;;;;;1.98;1.88;;;;;;;;;;5063936;28;20042;-79
2021/06/04 03:10:12;;;;;;;2.35;2.25;;;;;;;;;;5070884;28;20033;-79
2021/06/04 03:12:44;;;;;;;1.58;1.30;;;;;;;;;;5071041;28;20052;-79
2021/06/04 03:15:16;;;;;;;2.20;2.10;;;;;;;;;;5053126;28;20063;-79
2021/06/04 03:17:43;;;;;;;2.00;1.90;;;;;;;;;;5044435;28;20060;-79
2021/06/04 03:20:12;;;;;;;1.60;1.60;;;;;;;;;;5069773;28;20044;-79
2021/06/04 03:22:41;;;;;;;1.60;1.50;;;;;;;;;;5049756;28;20452;-79
2021/06/04 03:25:16;;;;;;;1.80;1.80;;;;;;;;;;5100445;28;20040;-79
2021/06/04 03:27:44;;;;;;;1.83;1.73;;;;;;;;;;5070092;28;20094;-79
2021/06/04 03:30:11;;;;;;;2.38;2.28;;;;;;;;;;5051102;28;20064;-79
2021/06/04 03:32:38;;;;;;;2.15;2.05;;;;;;;;;;5068243;28;20033;-79
2021/06/04 03:35:07;;;;;;;1.65;1.65;;;;;;;;;;5066001;28;20119;-79
2021/06/04 03:37:36;;;;;;;1.85;1.75;;;;;;;;;;5069577;28;20043;-79
2021/06/04 03:40:05;;;;;;;6.82;2.13;;;;;;;;;;5070887;28;20536;-79
2021/06/04 03:42:32;;;;;;;2.35;2.20;;;;;;;;;;5070807;28;20047;-79
2021/06/04 03:44:59;;;;;;;2.25;2.15;;;;;;;;;;5063999;28;20041;-79
2021/06/04 03:47:27;;;;;;;1.65;1.55;;;;;;;;;;5060842;28;20045;-79
2021/06/04 03:49:54;;;;;;;2.28;1.73;;;;;;;;;;5063899;28;20036;-79
2021/06/04 03:52:22;;;;;;;3.67;1.95;;;;;;;;;;5071126;28;20037;-79
2021/06/04 03:54:51;;;;;;;1.77;1.70;;;;;;;;;;5086117;28;20020;-79
2021/06/04 03:57:20;;;;;;;2.03;1.95;;;;;;;;;;5068495;28;20054;-79
2021/06/04 03:59:47;;;;;;;3.05;2.00;;;;;;;;;;5051826;28;20136;-79
2021/06/04 04:02:16;;;;;;;2.38;2.28;;;;;;;;;;5060979;28;20063;-79
2021/06/04 04:04:43;;;;;;;2.42;2.33;;;;;;;;;;5052324;28;20049;-79
2021/06/04 04:07:11;;;;;;;2.30;2.17;;;;;;;;;;5090599;28;20032;-79
2021/06/04 04:09:38;;;;;;;3.13;3.03;;;;;;;;;;5070345;28;20064;-79
2021/06/04 04:12:08;;;;;;;2.95;2.75;;;;;;;;;;5093355;28;20045;-79
2021/06/04 04:14:35;;;;;;;2.08;1.98;;;;;;;;;;5037022;28;20049;-79
2021/06/04 04:17:03;;;;;;;2.42;2.33;;;;;;;;;;5031001;28;20068;-79
2021/06/04 04:19:30;;;;;;;2.30;2.17;;;;;;;;;;5030852;28;20118;-79
2021/06/04 04:21:57;;;;;;;2.38;2.28;;;;;;;;;;5030937;28;20040;-79
2021/06/04 04:24:28;;;;;;;2.15;2.05;;;;;;;;;;5015213;28;20499;-79
2021/06/04 04:26:56;;;;;;;2.20;2.10;;;;;;;;;;5030028;28;20045;-79
2021/06/04 04:29:24;;;;;;;2.45;2.33;;;;;;;;;;5047928;28;20041;-79
2021/06/04 04:31:53;;;;;;;2.50;2.30;;;;;;;;;;5060474;28;20057;-79
2021/06/04 04:34:21;;;;;;;2.70;2.53;;;;;;;;;;5048477;28;20094;-79
2021/06/04 04:36:49;;;;;;;2.30;2.20;;;;;;;;;;5060447;28;20553;-79
2021/06/04 04:39:19;;;;;;;6.75;3.08;;;;;;;;;;5031110;28;20037;-79
2021/06/04 04:41:47;;;;;;;2.97;2.67;;;;;;;;;;5031063;28;20054;-79
2021/06/04 04:44:14;;;;;;;3.00;2.90;;;;;;;;;;5030305;28;20142;-79
2021/06/04 04:46:41;;;;;;;2.38;2.33;;;;;;;;;;5048206;28;20080;-79
2021/06/04 04:49:08;;;;;;;2.30;2.15;;;;;;;;;;5047539;28;20549;-79
2021/06/04 04:51:36;;;;;;;2.63;2.50;;;;;;;;;;5030490;28;20187;-79
2021/06/04 04:54:04;;;;;;;3.47;3.28;;;;;;;;;;5032526;28;20052;-79
2021/06/04 04:56:56;;;;;;;3.45;3.15;;;;;;;;;;5031085;28;20116;-79
2021/06/04 04:59:23;;;;;;;3.17;3.08;;;;;;;;;;5027504;28;20169;-79
2021/06/04 05:01:50;;;;;;;2.90;2.80;;;;;;;;;;5024141;28;20181;-79
2021/06/04 05:04:17;;;;;;;3.80;3.13;;;;;;;;;;5010165;28;20124;-79
2021/06/04 05:06:44;;;;;;;6.82;3.42;;;;;;;;;;5020481;28;20058;-79
2021/06/04 05:09:11;;;;;;;3.58;3.03;;;;;;;;;;5036835;28;20034;-79
2021/06/04 05:11:38;;;;;;;3.47;2.50;;;;;;;;;;5029798;28;20056;-79
2021/06/04 05:14:06;;;;;;;2.65;2.45;;;;;;;;;;5030465;28;20223;-79
2021/06/04 05:16:32;;;;;;;2.20;2.10;;;;;;;;;;5028706;28;20033;-79
2021/06/04 05:18:59;;;;;;;5.55;1.60;;;;;;;;;;5037036;28;20120;-79
2021/06/04 05:21:26;;;;;;;3.00;2.15;;;;;;;;;;5055120;28;20490;-79
2021/06/04 05:23:54;;;;;;;1.67;1.60;;;;;;;;;;5052679;28;20064;-79
2021/06/04 05:26:22;;;;;;;4.28;1.67;;;;;;;;;;5035069;28;20127;-79
2021/06/04 05:28:48;;;;;;;1.75;1.65;;;;;;;;;;5050094;28;20140;-79
2021/06/04 05:31:16;;;;;;;3.95;1.95;;;;;;;;;;5032246;28;20380;-80
2021/06/04 05:33:44;;;;;;;2.35;1.85;;;;;;;;;;5032152;28;20087;-79
2021/06/04 05:36:13;;;;;;;5.55;1.70;;;;;;;;;;5048152;28;20049;-79
2021/06/04 05:38:40;;;;;;;2.00;1.80;;;;;;;;;;5063753;28;20037;-79
2021/06/04 05:41:07;;;;;;;1.70;1.60;;;;;;;;;;5047665;28;20059;-79
2021/06/04 05:43:34;;;;;;;4.13;3.10;;;;;;;;;;5071536;28;20123;-79
2021/06/04 05:46:03;;;;;;;2.03;1.83;;;;;;;;;;5072367;28;20037;-79
2021/06/04 05:48:30;;;;;;;5.32;2.17;;;;;;;;;;5069878;28;20037;-79
2021/06/04 05:50:58;;;;;;;3.40;1.65;;;;;;;;;;5070969;28;20064;-79
2021/06/04 05:53:26;;;;;;;3.72;1.70;;;;;;;;;;5069995;28;20128;-79
2021/06/04 05:55:54;;;;;;;10.13;1.77;;;;;;;;;;5047512;28;20044;-80
2021/06/04 05:58:21;;;;;;;2.55;1.75;;;;;;;;;;5049188;28;20048;-80
2021/06/04 06:00:55;;;;;;;3.58;1.63;;;;;;;;;;5092528;28;20047;-80
2021/06/04 06:03:24;;;;;;;3.10;1.30;;;;;;;;;;5059028;28;20373;-80
2021/06/04 06:05:51;;;;;;;1.80;1.70;;;;;;;;;;5083889;28;20489;-80
2021/06/04 06:08:18;;;;;;;2.45;1.50;;;;;;;;;;5069823;28;20398;-80
2021/06/04 06:10:45;;;;;;;1.30;1.20;;;;;;;;;;5074697;28;20036;-80
2021/06/04 06:13:12;;;;;;;1.25;1.15;;;;;;;;;;5071853;28;21027;-80
2021/06/04 06:15:39;;;;;;;1.63;1.63;;;;;;;;;;5056212;28;20052;-80
2021/06/04 06:18:07;;;;;;;3.45;1.45;;;;;;;;;;5104247;28;20143;-80
2021/06/04 06:20:37;;;;;;;2.45;1.17;;;;;;;;;;5064192;28;20041;-80
2021/06/04 06:23:04;;;;;;;1.60;1.60;;;;;;;;;;5070097;28;20048;-80
2021/06/04 06:25:34;;;;;;;1.20;1.20;;;;;;;;;;5068615;28;20036;-80
2021/06/04 06:28:01;;;;;;;1.45;1.20;;;;;;;;;;5057514;28;20036;-80
2021/06/04 06:30:29;;;;;;;4.55;1.33;;;;;;;;;;5085765;28;20052;-80
2021/06/04 06:32:55;;;;;;;3.10;1.27;;;;;;;;;;5070555;28;20045;-80
2021/06/04 06:35:26;;;;;;;1.40;1.30;;;;;;;;;;5072086;28;20466;-80
2021/06/04 06:37:53;;;;;;;1.20;1.20;;;;;;;;;;5098334;28;20359;-80
2021/06/04 06:40:20;;;;;;;1.83;1.00;;;;;;;;;;5071383;28;20068;-80
2021/06/04 06:42:47;;;;;;;1.98;1.10;;;;;;;;;;5066762;28;20057;-80
2021/06/04 06:45:14;;;;;;;1.33;1.23;;;;;;;;;;5062195;28;20397;-80
2021/06/04 06:47:41;;;;;;;1.48;1.00;;;;;;;;;;5074995;28;20147;-80
2021/06/04 06:50:09;;;;;;;1.45;1.00;;;;;;;;;;5071145;28;20489;-80
2021/06/04 06:52:36;;;;;;;3.05;1.00;;;;;;;;;;5073465;28;20033;-80
2021/06/04 06:55:04;;;;;;;1.63;1.02;;;;;;;;;;5064609;28;20048;-80
2021/06/04 06:57:31;;;;;;;1.00;1.00;;;;;;;;;;5062480;28;20054;-79
2021/06/04 06:59:58;;;;;;;1.10;1.10;;;;;;;;;;5072196;28;20049;-79
2021/06/04 07:02:25;;;;;;;1.38;1.02;;;;;;;;;;5069518;28;20044;-80
2021/06/04 07:04:52;;;;;;;0.95;0.95;;;;;;;;;;5070213;28;20044;-80
2021/06/04 07:07:20;;;;;;;4.13;1.52;;;;;;;;;;5061488;28;20072;-80
2021/06/04 07:09:47;;;;;;;1.05;1.05;;;;;;;;;;5068719;28;20028;-80
2021/06/04 07:12:14;;;;;;;2.30;1.00;;;;;;;;;;5071652;28;20393;-80
2021/06/04 07:14:41;;;;;;;1.15;0.90;;;;;;;;;;5097505;28;20033;-80
2021/06/04 07:17:08;;;;;;;0.90;0.90;;;;;;;;;;5068625;28;20053;-80
2021/06/04 07:19:35;;;;;;;1.02;1.02;;;;;;;;;;5066320;28;20111;-80
2021/06/04 07:22:03;;;;;;;2.08;0.90;;;;;;;;;;5069627;28;20373;-80
2021/06/04 07:24:30;;;;;;;0.90;0.90;;;;;;;;;;5064517;28;20041;-80
2021/06/04 07:26:58;;;;;;;0.80;0.80;;;;;;;;;;5068350;28;20033;-80
2021/06/04 07:29:26;;;;;;;4.03;1.42;;;;;;;;;;5070798;28;20414;-80
2021/06/04 07:31:53;;;;;;;0.90;0.90;;;;;;;;;;5069971;28;20513;-80
2021/06/04 07:34:20;;;;;;;1.58;0.80;;;;;;;;;;5071514;28;20040;-80
2021/06/04 07:36:48;;;;;;;0.80;0.80;;;;;;;;;;5057757;28;20041;-80
2021/06/04 07:39:17;;;;;;;0.80;0.80;;;;;;;;;;5069567;28;20048;-80
2021/06/04 07:41:44;;;;;;;1.40;0.80;;;;;;;;;;5071523;28;20036;-80
2021/06/04 07:44:13;;;;;;;0.75;0.75;;;;;;;;;;5086131;28;20067;-80
2021/06/04 07:46:40;;;;;;;0.82;0.80;;;;;;;;;;5069886;28;20059;-80
2021/06/04 07:49:08;;;;;;;0.80;0.80;;;;;;;;;;5070838;28;20096;-80
2021/06/04 07:51:36;;;;;;;1.02;0.70;;;;;;;;;;5049030;28;20045;-80
2021/06/04 07:54:04;;;;;;;2.05;0.80;;;;;;;;;;5060584;28;20052;-80
2021/06/04 07:56:31;;;;;;;3.13;0.80;;;;;;;;;;5070649;28;20143;-80
2021/06/04 07:58:59;;;;;;;2.40;0.80;;;;;;;;;;5067229;28;20041;-80
2021/06/04 08:01:27;;;;;;;4.75;0.80;;;;;;;;;;5067923;28;20041;-80
2021/06/04 08:03:54;;;;;;;1.17;0.80;;;;;;;;;;5069713;28;20383;-80
2021/06/04 08:06:21;;;;;;;1.55;0.80;;;;;;;;;;5082894;28;20044;-80
2021/06/04 08:08:53;;;;;;;1.17;1.15;;;;;;;;;;5068931;28;20033;-80
2021/06/04 08:11:21;;;;;;;0.70;0.70;;;;;;;;;;5067898;28;20075;-80
2021/06/04 08:13:48;;;;;;;0.85;0.80;;;;;;;;;;5057331;28;20041;-80
2021/06/04 08:16:15;;;;;;;0.90;0.70;;;;;;;;;;5068544;28;20497;-80
2021/06/04 08:18:43;;;;;;;6.53;0.70;;;;;;;;;;5068256;28;20131;-80
2021/06/04 08:21:15;;;;;;;2.25;0.98;;;;;;;;;;5068041;28;20040;-80
2021/06/04 08:23:43;;;;;;;2.97;0.98;;;;;;;;;;5070424;28;20405;-80
2021/06/04 08:26:13;;;;;;;1.60;0.90;;;;;;;;;;5069537;28;20550;-80
2021/06/04 08:28:40;;;;;;;1.70;1.30;;;;;;;;;;5068323;28;20082;-80
2021/06/04 08:31:07;;;;;;;1.00;0.90;;;;;;;;;;5070159;28;20037;-80
2021/06/04 08:33:35;;;;;;;2.25;1.00;;;;;;;;;;5069429;28;20033;-80
2021/06/04 08:36:03;;;;;;;0.82;0.80;;;;;;;;;;5069766;28;20036;-80
2021/06/04 08:38:32;;;;;;;1.88;0.80;;;;;;;;;;5064153;28;20036;-80
2021/06/04 08:41:09;;;;;;;0.80;0.80;;;;;;;;;;5068883;28;20166;-80
2021/06/04 08:43:45;;;;;;;1.15;0.80;;;;;;;;;;5068880;28;20055;-80
2021/06/04 08:46:12;;;;;;;2.80;0.80;;;;;;;;;;5067412;28;20358;-80
2021/06/04 08:48:48;;;;;;;0.60;0.60;;;;;;;;;;5069583;28;20043;-80
2021/06/04 08:51:19;;;;;;;2.33;0.60;;;;;;;;;;5065712;28;20047;-80
2021/06/04 08:54:05;;;;;;;1.20;0.60;;;;;;;;;;5071966;28;20116;-80
2021/06/04 08:56:36;;;;;;;0.60;0.60;;;;;;;;;;5084973;28;20040;-80
2021/06/04 08:59:06;;;;;;;1.67;1.03;;;;;;;;;;5067837;28;20072;-80
2021/06/04 09:01:51;;;;;;;0.60;0.60;;;;;;;;;;5056677;28;20381;-80
2021/06/04 09:04:28;;;;;;;1.42;0.60;;;;;;;;;;5072515;28;20041;-80
2021/06/04 09:07:09;;;;;;;0.60;0.60;;;;;;;;;;5103391;28;20048;-80
2021/06/04 09:09:36;;;;;;;1.80;0.70;;;;;;;;;;5092902;28;20039;-80
2021/06/04 09:12:05;;;;;;;0.60;0.60;;;;;;;;;;5072425;28;20036;-80
2021/06/04 09:14:32;;;;;;;2.58;0.63;;;;;;;;;;5072527;28;20055;-80
2021/06/04 09:16:59;;;;;;;1.58;0.70;;;;;;;;;;5059655;28;20045;-80
2021/06/04 09:19:31;;;;;;;1.85;0.65;;;;;;;;;;5068278;28;20525;-81
2021/06/04 09:21:58;;;;;;;1.85;0.60;;;;;;;;;;5074272;28;20033;-81
2021/06/04 09:24:35;;;;;;;1.85;0.60;;;;;;;;;;5073606;28;20047;-81
2021/06/04 09:27:02;;;;;;;0.65;0.65;;;;;;;;;;5058497;28;20080;-81
2021/06/04 09:29:29;;;;;;;1.83;0.60;;;;;;;;;;5069050;28;20048;-80
2021/06/04 09:32:20;;;;;;;1.92;0.60;;;;;;;;;;5072554;28;20037;-80
2021/06/04 09:34:47;;;;;;;0.57;0.57;;;;;;;;;;5071251;28;20530;-80
2021/06/04 09:37:29;;;;;;;0.55;0.55;;;;;;;;;;5075320;28;20397;-80
2021/06/04 09:40:08;;;;;;;0.70;0.60;;;;;;;;;;5074581;28;20046;-81
2021/06/04 09:42:39;;;;;;;0.70;0.60;;;;;;;;;;5050182;28;20107;-81
2021/06/04 09:45:12;;;;;;;3.30;0.60;;;;;;;;;;5086531;28;20052;-81
2021/06/04 09:47:47;;;;;;;0.60;0.60;;;;;;;;;;5083713;28;20063;-81
2021/06/04 09:50:20;;;;;;;1.35;0.50;;;;;;;;;;5081665;28;20037;-80
2021/06/04 09:52:46;;;;;;;;;;;;;;;;;;5080860;28;20120;-80
2021/06/04 09:55:24;;;;;;;1.17;0.52;;;;;;;;;;5089540;28;20297;-80
2021/06/04 09:58:06;;;;;;;0.30;0.30;;;;;;;;;;5072717;28;20059;-80
2021/06/04 10:00:36;;;;;;;1.08;0.40;;;;;;;;;;5071013;28;20043;-80
2021/06/04 10:03:07;;;;;;;1.63;0.50;;;;;;;;;;5072132;28;20043;-80
2021/06/04 10:05:35;;;;;;;0.70;0.50;;;;;;;;;;5071099;28;20150;-80
2021/06/04 10:08:21;;;;;;;0.82;0.57;;;;;;;;;;5072240;28;20386;-80
2021/06/04 10:11:01;;;;;;;4.53;0.70;;;;;;;;;;5065393;28;20043;-81
2021/06/04 10:13:36;;;;;;;3.92;0.60;;;;;;;;;;5069822;28;20380;-81
2021/06/04 10:16:19;;;;;;;1.95;0.50;;;;;;;;;;5069909;28;20037;-81
2021/06/04 10:18:46;;;;;;;;;;;;;;;;;;5049926;28;20105;-80
2021/06/04 10:21:33;;;;;;;0.40;0.40;;;;;;;;;;5070507;28;19920;-81
2021/06/04 10:24:01;;;;;;;0.50;0.50;;;;;;;;;;5072963;28;20040;-81
2021/06/04 10:26:30;;;;;;;1.15;0.40;;;;;;;;;;5069286;28;20048;-81
2021/06/04 10:29:14;;;;;;;0.40;0.40;;;;;;;;;;5073456;28;20119;-81
2021/06/04 10:31:41;;;;;;;0.40;0.40;;;;;;;;;;5105259;28;20044;-81
2021/06/04 10:34:21;;;;;;;2.03;0.60;;;;;;;;;;5066377;28;20039;-81
2021/06/04 10:36:52;;;;;;;0.75;0.50;;;;;;;;;;5069125;28;20043;-81
2021/06/04 10:39:31;;;;;;;1.25;0.40;;;;;;;;;;5069867;28;20044;-81
2021/06/04 10:42:01;;;;;;;0.40;0.40;;;;;;;;;;5061734;28;20048;-81
2021/06/04 10:44:40;;;;;;;0.60;0.50;;;;;;;;;;5064081;28;20045;-81
2021/06/04 10:47:13;;;;;;;3.13;0.45;;;;;;;;;;5056317;28;20040;-81
2021/06/04 10:49:55;;;;;;;0.40;0.40;;;;;;;;;;5071958;28;20071;-81
2021/06/04 10:52:45;;;;;;;0.63;0.40;;;;;;;;;;5071801;28;20485;-81
2021/06/04 10:55:21;;;;;;;4.05;0.40;;;;;;;;;;5055386;28;20040;-81
2021/06/04 10:58:11;;;;;;;0.45;0.40;;;;;;;;;;5085153;28;20033;-81
2021/06/04 11:00:44;;;;;;;2.10;0.40;;;;;;;;;;5067311;28;20117;-81
2021/06/04 11:03:16;;;;;;;4.47;0.40;;;;;;;;;;5062992;28;20099;-81
2021/06/04 11:05:52;;;;;;;0.30;0.30;;;;;;;;;;5079520;28;20441;-80
2021/06/04 11:08:37;;;;;;;1.67;0.30;;;;;;;;;;5078564;28;20040;-80
2021/06/04 11:11:11;;;;;;;0.40;0.40;;;;;;;;;;5098274;27;20036;-80
2021/06/04 11:14:07;;;;;;;0.73;0.40;;;;;;;;;;5067235;28;20406;-80
2021/06/04 11:16:52;;;;;;;0.95;0.30;;;;;;;;;;5038840;28;20103;-80
2021/06/04 11:19:31;;;;;;;0.40;0.30;;;;;;;;;;5062776;28;20036;-80
2021/06/04 11:21:58;;;;;;;1.17;0.38;;;;;;;;;;5068522;28;21185;-80
2021/06/04 11:24:31;;;;;;;0.30;0.30;;;;;;;;;;5070633;28;20045;-80
2021/06/04 11:26:58;;;;;;;0.40;0.40;;;;;;;;;;5076673;28;20534;-80
2021/06/04 11:29:33;;;;;;;0.85;0.30;;;;;;;;;;5078007;28;20047;-80
2021/06/04 11:32:18;;;;;;;1.15;0.40;;;;;;;;;;5076185;28;20043;-80
2021/06/04 11:35:09;;;;;;;0.95;0.40;;;;;;;;;;5094747;28;20040;-80
2021/06/04 11:37:40;;;;;;;0.35;0.30;;;;;;;;;;5071905;28;20041;-79
2021/06/04 11:40:10;;;;;;;1.05;0.35;;;;;;;;;;5100748;28;20045;-79
2021/06/04 11:42:46;;;;;;;5.18;0.40;;;;;;;;;;5079878;28;20538;-79
2021/06/04 11:45:15;;;;;;;0.47;0.30;;;;;;;;;;5066593;28;20024;-79
2021/06/04 11:47:42;;;;;;;0.30;0.30;;;;;;;;;;5099658;27;20099;-79
2021/06/04 11:50:24;;;;;;;0.30;0.30;;;;;;;;;;5058925;28;20390;-79
2021/06/04 11:52:53;;;;;;;0.38;0.38;;;;;;;;;;5061161;28;20063;-79
2021/06/04 11:55:26;;;;;;;2.17;0.40;;;;;;;;;;5062272;28;20032;-79
2021/06/04 11:57:53;;;;;;;0.40;0.40;;;;;;;;;;5066512;28;20060;-79
2021/06/04 12:00:27;;;;;;;0.30;0.30;;;;;;;;;;5055577;28;20028;-79
2021/06/04 12:03:04;;;;;;;0.30;0.30;;;;;;;;;;5068724;28;20076;-79
2021/06/04 12:05:37;;;;;;;1.10;0.30;;;;;;;;;;5067582;28;20529;-79
2021/06/04 12:08:23;;;;;;;0.30;0.30;;;;;;;;;;5068962;28;20131;-79
2021/06/04 12:10:53;;;;;;;0.35;0.30;;;;;;;;;;5051322;28;20727;-79
2021/06/04 12:13:41;;;;;;;1.75;0.30;;;;;;;;;;5063802;28;20064;-79
2021/06/04 12:16:21;;;;;;;0.30;0.30;;;;;;;;;;5069734;28;20064;-80
2021/06/04 12:18:50;;;;;;;0.30;0.30;;;;;;;;;;5095760;28;20043;-80
2021/06/04 12:21:36;;;;;;;1.02;0.52;;;;;;;;;;5064871;28;20051;-80
2021/06/04 12:24:03;;;;;;;1.02;0.30;;;;;;;;;;5059270;28;20040;-80
2021/06/04 12:26:41;;;;;;;0.40;0.30;;;;;;;;;;5059032;28;20048;-80
2021/06/04 12:29:20;;;;;;;0.30;0.30;;;;;;;;;;5067963;28;20130;-80
2021/06/04 12:32:09;;;;;;;0.30;0.30;;;;;;;;;;5067212;28;20040;-80
2021/06/04 12:34:39;;;;;;;0.98;0.30;;;;;;;;;;5059684;28;20028;-80
2021/06/04 12:37:06;;;;;;;0.30;0.30;;;;;;;;;;5056777;28;20032;-80
2021/06/04 12:39:35;;;;;;;1.98;0.30;;;;;;;;;;5045371;28;20156;-77
2021/06/04 12:42:09;;;;;;;0.20;0.20;;;;;;;;;;5064197;28;20057;-77
2021/06/04 12:44:36;;;;;;;1.27;0.40;;;;;;;;;;5052038;28;20518;-77
2021/06/04 12:47:04;;;;;;;0.22;0.22;;;;;;;;;;5062066;28;20493;-77
2021/06/04 12:49:32;;;;;;;1.45;0.30;;;;;;;;;;5058204;28;20028;-77
2021/06/04 12:51:59;;;;;;;0.40;0.40;;;;;;;;;;5068358;28;20041;-77
2021/06/04 12:54:28;;;;;;;0.30;0.30;;;;;;;;;;5068148;28;20051;-77
2021/06/04 12:56:58;;;;;;;0.63;0.30;;;;;;;;;;5067969;28;20047;-77
2021/06/04 12:59:26;;;;;;;1.10;0.30;;;;;;;;;;5062876;28;20080;-77
2021/06/04 13:01:56;;;;;;;0.65;0.30;;;;;;;;;;5069282;28;20044;-77
2021/06/04 13:04:43;;;;;;;0.40;0.30;;;;;;;;;;5062347;28;20040;-77
2021/06/04 13:07:14;;;;;;;0.30;0.30;;;;;;;;;;5062311;28;20048;-77
2021/06/04 13:09:42;;;;;;;0.30;0.30;;;;;;;;;;5066187;28;20037;-77
2021/06/04 13:12:18;;;;;;;0.52;0.30;;;;;;;;;;5067865;28;20037;-77
2021/06/04 13:14:47;;;;;;;0.95;0.30;;;;;;;;;;5048763;28;20065;-77
2021/06/04 13:17:16;;;;;;;0.55;0.30;;;;;;;;;;5056640;28;20049;-77
2021/06/04 13:19:44;;;;;;;0.30;0.30;;;;;;;;;;5090594;28;20144;-77
2021/06/04 13:22:22;;;;;;;0.60;0.30;;;;;;;;;;5063771;28;20127;-77
2021/06/04 13:24:51;;;;;;;1.13;0.30;;;;;;;;;;5095216;28;20044;-77
2021/06/04 13:27:21;;;;;;;1.20;0.30;;;;;;;;;;5057637;28;20033;-77
2021/06/04 13:29:54;;;;;;;0.25;0.25;;;;;;;;;;5060027;28;20037;-77
2021/06/04 13:32:23;;;;;;;1.45;0.30;;;;;;;;;;5064049;28;20442;-78
2021/06/04 13:34:50;;;;;;;0.30;0.30;;;;;;;;;;5057748;28;20749;-77
2021/06/04 13:37:25;;;;;;;0.30;0.30;;;;;;;;;;5065640;28;20067;-77
2021/06/04 13:39:52;;;;;;;0.30;0.30;;;;;;;;;;5066819;28;20045;-77
2021/06/04 13:42:30;;;;;;;0.30;0.30;;;;;;;;;;5071354;28;20044;-77
2021/06/04 13:44:58;;;;;;;0.30;0.30;;;;;;;;;;5062235;28;20036;-77
2021/06/04 13:47:37;;;;;;;0.60;0.30;;;;;;;;;;5060354;28;20657;-77
2021/06/04 13:50:15;;;;;;;2.80;0.30;;;;;;;;;;5060215;28;20037;-77
2021/06/04 13:52:55;;;;;;;0.30;0.30;;;;;;;;;;5065708;28;20051;-77
2021/06/04 13:55:22;;;;;;;0.30;0.30;;;;;;;;;;5074784;28;20062;-77
2021/06/04 13:57:49;;;;;;;0.40;0.30;;;;;;;;;;5071383;28;20669;-77
2021/06/04 14:00:21;;;;;;;0.30;0.30;;;;;;;;;;5063666;28;20059;-77
2021/06/04 14:02:50;;;;;;;0.88;0.30;;;;;;;;;;5100900;27;20036;-77
2021/06/04 14:05:23;;;;;;;0.80;0.30;;;;;;;;;;5066301;28;20575;-77
2021/06/04 14:07:49;;;;;;;;;;;;;;;;;;5056569;28;20310;-77
2021/06/04 14:10:17;;;;;;;1.65;0.30;;;;;;;;;;5099290;28;20416;-77
2021/06/04 14:12:44;;;;;;;0.20;0.20;;;;;;;;;;5093871;27;20037;-77
2021/06/04 14:15:26;;;;;;;0.38;0.30;;;;;;;;;;5062500;28;20541;-77
2021/06/04 14:17:53;;;;;;;0.73;0.40;;;;;;;;;;5053448;28;20078;-77
2021/06/04 14:20:38;;;;;;;0.82;0.30;;;;;;;;;;5047800;28;20101;-77
2021/06/04 14:23:21;;;;;;;0.22;0.22;;;;;;;;;;5085679;28;20048;-77
2021/06/04 14:25:48;;;;;;;0.30;0.30;;;;;;;;;;5069482;28;20056;-77
2021/06/04 14:28:18;;;;;;;1.58;0.20;;;;;;;;;;5057609;28;20051;-77
2021/06/04 14:31:04;;;;;;;0.30;0.30;;;;;;;;;;5062377;28;20033;-77
2021/06/04 14:33:39;;;;;;;0.22;0.22;;;;;;;;;;5062408;28;20067;-77
2021/06/04 14:36:20;;;;;;;0.30;0.30;;;;;;;;;;5076633;28;20046;-77
2021/06/04 14:38:50;;;;;;;0.20;0.20;;;;;;;;;;5062117;28;20053;-77
2021/06/04 14:41:19;;;;;;;0.30;0.30;;;;;;;;;;5061159;28;20491;-77
2021/06/04 14:43:52;;;;;;;1.33;0.30;;;;;;;;;;5093182;28;20076;-77
2021/06/04 14:46:29;;;;;;;0.65;0.20;;;;;;;;;;5094650;28;20044;-77
2021/06/04 14:48:58;;;;;;;1.10;0.30;;;;;;;;;;5080438;28;20131;-77
2021/06/04 14:51:26;;;;;;;1.85;0.32;;;;;;;;;;5077212;28;21788;-77
2021/06/04 14:53:54;;;;;;;0.30;0.30;;;;;;;;;;5093790;27;20066;-77
2021/06/04 14:56:24;;;;;;;1.98;0.30;;;;;;;;;;5098448;28;20826;-77
2021/06/04 14:58:53;;;;;;;0.45;0.30;;;;;;;;;;5097997;28;20405;-77
2021/06/04 15:01:21;;;;;;;2.50;0.30;;;;;;;;;;5079716;28;20432;-77
2021/06/04 15:03:52;;;;;;;0.30;0.30;;;;;;;;;;5096934;28;20095;-77
2021/06/04 15:06:20;;;;;;;0.90;0.40;;;;;;;;;;5066945;28;20366;-77
2021/06/04 15:08:48;;;;;;;0.30;0.30;;;;;;;;;;5093987;28;20404;-77